sensor_id;sensor_type;location;lat;lon;timestamp;temperature;humidity
24103;DHT22;12278;53.058;9.028;2023-02-10T00:00:14;3.70;99.90
24103;DHT22;12278;53.058;9.028;2023-02-10T00:04:15;3.60;99.90
24103;DHT22;12278;53.058;9.028;2023-02-10T00:08:15;3.60;99.90
24103;DHT22;12278;53.058;9.028;2023-02-10T00:12:16;3.40;99.90
24103;DHT22;12278;53.058;9.028;2023-02-10T00:16:16;3.40;99.90
24103;DHT22;12278;53.058;9.028;2023-02-10T00:20:17;3.30;99.90
24103;DHT22;12278;53.058;9.028;2023-02-10T00:24:28;3.30;99.90
24103;DHT22;12278;53.058;9.028;2023-02-10T00:28:29;3.40;99.90
24103;DHT22;12278;53.058;9.028;2023-02-10T00:32:30;3.40;99.90
24103;DHT22;12278;53.058;9.028;2023-02-10T00:36:40;3.40;99.90
24103;DHT22;12278;53.058;9.028;2023-02-10T00:40:40;3.40;99.90
24103;DHT22;12278;53.058;9.028;2023-02-10T00:44:41;3.40;99.90
24103;DHT22;12278;53.058;9.028;2023-02-10T00:48:43;3.40;99.90
24103;DHT22;12278;53.058;9.028;2023-02-10T00:52:43;3.50;99.90
24103;DHT22;12278;53.058;9.028;2023-02-10T00:56:44;3.50;99.90
24103;DHT22;12278;53.058;9.028;2023-02-10T01:00:45;3.50;99.90
24103;DHT22;12278;53.058;9.028;2023-02-10T01:04:45;3.40;99.90
24103;DHT22;12278;53.058;9.028;2023-02-10T01:08:53;3.60;99.90
24103;DHT22;12278;53.058;9.028;2023-02-10T01:12:54;3.50;99.90
24103;DHT22;12278;53.058;9.028;2023-02-10T01:16:54;3.50;99.90
24103;DHT22;12278;53.058;9.028;2023-02-10T01:20:55;3.50;99.90
24103;DHT22;12278;53.058;9.028;2023-02-10T01:24:56;3.40;99.90
24103;DHT22;12278;53.058;9.028;2023-02-10T01:28:56;3.50;99.90
24103;DHT22;12278;53.058;9.028;2023-02-10T01:32:57;3.50;99.90
24103;DHT22;12278;53.058;9.028;2023-02-10T01:36:57;3.60;99.90
24103;DHT22;12278;53.058;9.028;2023-02-10T01:40:58;3.50;99.90
24103;DHT22;12278;53.058;9.028;2023-02-10T01:49:30;3.40;99.90
24103;DHT22;12278;53.058;9.028;2023-02-10T01:53:33;3.50;99.90
24103;DHT22;12278;53.058;9.028;2023-02-10T01:57:34;3.50;99.90
24103;DHT22;12278;53.058;9.028;2023-02-10T02:01:39;3.50;99.90
24103;DHT22;12278;53.058;9.028;2023-02-10T02:05:41;3.40;99.90
24103;DHT22;12278;53.058;9.028;2023-02-10T02:09:43;3.40;99.90
24103;DHT22;12278;53.058;9.028;2023-02-10T02:22:54;3.30;99.90
24103;DHT22;12278;53.058;9.028;2023-02-10T02:27:04;3.10;99.90
24103;DHT22;12278;53.058;9.028;2023-02-10T02:31:25;3.10;99.90
24103;DHT22;12278;53.058;9.028;2023-02-10T02:35:40;3.00;99.90
24103;DHT22;12278;53.058;9.028;2023-02-10T02:39:43;2.90;99.90
24103;DHT22;12278;53.058;9.028;2023-02-10T02:43:44;3.10;99.90
24103;DHT22;12278;53.058;9.028;2023-02-10T02:52:21;3.10;99.90
24103;DHT22;12278;53.058;9.028;2023-02-10T03:00:49;3.20;99.90
24103;DHT22;12278;53.058;9.028;2023-02-10T03:04:51;3.20;99.90
24103;DHT22;12278;53.058;9.028;2023-02-10T03:08:51;3.30;99.90
24103;DHT22;12278;53.058;9.028;2023-02-10T03:12:52;3.20;99.90
24103;DHT22;12278;53.058;9.028;2023-02-10T03:17:03;3.20;99.90
24103;DHT22;12278;53.058;9.028;2023-02-10T03:21:04;3.20;99.90
24103;DHT22;12278;53.058;9.028;2023-02-10T03:25:05;3.10;99.90
24103;DHT22;12278;53.058;9.028;2023-02-10T03:29:06;3.10;99.90
24103;DHT22;12278;53.058;9.028;2023-02-10T03:38:03;2.90;99.90
24103;DHT22;12278;53.058;9.028;2023-02-10T03:42:04;2.80;99.90
24103;DHT22;12278;53.058;9.028;2023-02-10T03:46:05;2.80;99.90
24103;DHT22;12278;53.058;9.028;2023-02-10T03:50:06;2.70;99.90
24103;DHT22;12278;53.058;9.028;2023-02-10T03:54:06;2.70;99.90
24103;DHT22;12278;53.058;9.028;2023-02-10T03:58:07;2.70;99.90
24103;DHT22;12278;53.058;9.028;2023-02-10T04:02:08;2.60;99.90
24103;DHT22;12278;53.058;9.028;2023-02-10T04:06:32;2.60;99.90
24103;DHT22;12278;53.058;9.028;2023-02-10T04:10:32;2.60;99.90
24103;DHT22;12278;53.058;9.028;2023-02-10T04:14:33;2.50;99.90
24103;DHT22;12278;53.058;9.028;2023-02-10T04:18:34;2.40;99.90
24103;DHT22;12278;53.058;9.028;2023-02-10T04:22:35;2.40;99.90
24103;DHT22;12278;53.058;9.028;2023-02-10T04:26:36;2.40;99.90
24103;DHT22;12278;53.058;9.028;2023-02-10T04:30:36;2.40;99.90
24103;DHT22;12278;53.058;9.028;2023-02-10T04:34:37;2.40;99.90
24103;DHT22;12278;53.058;9.028;2023-02-10T04:38:37;2.40;99.90
24103;DHT22;12278;53.058;9.028;2023-02-10T04:42:38;2.30;99.90
24103;DHT22;12278;53.058;9.028;2023-02-10T04:46:39;2.40;99.90
24103;DHT22;12278;53.058;9.028;2023-02-10T04:50:58;2.30;99.90
24103;DHT22;12278;53.058;9.028;2023-02-10T04:54:58;2.30;99.90
24103;DHT22;12278;53.058;9.028;2023-02-10T04:58:59;2.30;99.90
24103;DHT22;12278;53.058;9.028;2023-02-10T05:03:00;2.30;99.90
24103;DHT22;12278;53.058;9.028;2023-02-10T05:07:00;2.30;99.90
24103;DHT22;12278;53.058;9.028;2023-02-10T05:11:04;2.20;99.90
24103;DHT22;12278;53.058;9.028;2023-02-10T05:15:05;2.20;99.90
24103;DHT22;12278;53.058;9.028;2023-02-10T05:19:08;2.20;99.90
24103;DHT22;12278;53.058;9.028;2023-02-10T05:23:09;2.20;99.90
24103;DHT22;12278;53.058;9.028;2023-02-10T05:27:10;2.20;99.90
24103;DHT22;12278;53.058;9.028;2023-02-10T05:35:55;2.20;99.90
24103;DHT22;12278;53.058;9.028;2023-02-10T05:40:00;2.20;99.90
24103;DHT22;12278;53.058;9.028;2023-02-10T05:44:05;2.10;99.90
24103;DHT22;12278;53.058;9.028;2023-02-10T05:48:05;2.10;99.90
24103;DHT22;12278;53.058;9.028;2023-02-10T05:52:08;2.10;99.90
24103;DHT22;12278;53.058;9.028;2023-02-10T05:56:24;2.20;99.90
24103;DHT22;12278;53.058;9.028;2023-02-10T06:00:25;2.10;99.90
24103;DHT22;12278;53.058;9.028;2023-02-10T06:04:25;2.00;99.90
24103;DHT22;12278;53.058;9.028;2023-02-10T06:08:27;2.00;99.90
24103;DHT22;12278;53.058;9.028;2023-02-10T06:12:27;2.00;99.90
24103;DHT22;12278;53.058;9.028;2023-02-10T06:16:51;2.00;99.90
24103;DHT22;12278;53.058;9.028;2023-02-10T06:20:52;2.00;99.90
24103;DHT22;12278;53.058;9.028;2023-02-10T06:24:52;2.00;99.90
24103;DHT22;12278;53.058;9.028;2023-02-10T06:28:59;1.90;99.90
24103;DHT22;12278;53.058;9.028;2023-02-10T06:33:01;1.90;99.90
24103;DHT22;12278;53.058;9.028;2023-02-10T06:37:08;1.90;99.90
24103;DHT22;12278;53.058;9.028;2023-02-10T06:41:24;1.90;99.90
24103;DHT22;12278;53.058;9.028;2023-02-10T06:45:34;1.90;99.90
24103;DHT22;12278;53.058;9.028;2023-02-10T06:49:35;1.90;99.90
24103;DHT22;12278;53.058;9.028;2023-02-10T06:53:35;1.90;99.90
24103;DHT22;12278;53.058;9.028;2023-02-10T06:57:36;1.90;99.90
24103;DHT22;12278;53.058;9.028;2023-02-10T07:01:49;1.90;99.90
24103;DHT22;12278;53.058;9.028;2023-02-10T07:05:50;1.90;99.90
24103;DHT22;12278;53.058;9.028;2023-02-10T07:10:10;2.00;99.90
24103;DHT22;12278;53.058;9.028;2023-02-10T07:14:11;2.00;99.90
24103;DHT22;12278;53.058;9.028;2023-02-10T07:18:44;2.00;99.90
24103;DHT22;12278;53.058;9.028;2023-02-10T07:22:45;2.00;99.90
24103;DHT22;12278;53.058;9.028;2023-02-10T07:26:45;2.00;99.90
24103;DHT22;12278;53.058;9.028;2023-02-10T07:30:46;2.10;99.90
24103;DHT22;12278;53.058;9.028;2023-02-10T07:34:48;2.10;99.90
24103;DHT22;12278;53.058;9.028;2023-02-10T07:38:49;2.10;99.90
24103;DHT22;12278;53.058;9.028;2023-02-10T07:42:51;2.20;99.90
24103;DHT22;12278;53.058;9.028;2023-02-10T07:47:16;2.20;99.90
24103;DHT22;12278;53.058;9.028;2023-02-10T07:51:16;2.20;99.90
24103;DHT22;12278;53.058;9.028;2023-02-10T07:55:17;2.40;99.90
24103;DHT22;12278;53.058;9.028;2023-02-10T07:59:17;2.30;99.90
24103;DHT22;12278;53.058;9.028;2023-02-10T08:03:18;2.40;99.90
24103;DHT22;12278;53.058;9.028;2023-02-10T08:07:20;2.60;99.90
24103;DHT22;12278;53.058;9.028;2023-02-10T08:11:21;2.70;99.90
24103;DHT22;12278;53.058;9.028;2023-02-10T08:15:21;2.70;99.90
24103;DHT22;12278;53.058;9.028;2023-02-10T08:19:23;2.90;99.90
24103;DHT22;12278;53.058;9.028;2023-02-10T08:23:23;3.40;99.90
24103;DHT22;12278;53.058;9.028;2023-02-10T08:27:24;4.00;99.90
24103;DHT22;12278;53.058;9.028;2023-02-10T08:31:24;4.30;99.90
24103;DHT22;12278;53.058;9.028;2023-02-10T08:35:26;5.00;99.90
24103;DHT22;12278;53.058;9.028;2023-02-10T08:39:29;5.60;99.90
24103;DHT22;12278;53.058;9.028;2023-02-10T08:43:30;5.60;99.90
24103;DHT22;12278;53.058;9.028;2023-02-10T08:47:31;5.90;99.90
24103;DHT22;12278;53.058;9.028;2023-02-10T08:51:33;5.80;99.90
24103;DHT22;12278;53.058;9.028;2023-02-10T08:55:33;5.70;99.90
24103;DHT22;12278;53.058;9.028;2023-02-10T08:59:34;5.70;99.90
24103;DHT22;12278;53.058;9.028;2023-02-10T09:03:35;5.90;99.90
24103;DHT22;12278;53.058;9.028;2023-02-10T09:07:35;5.90;99.90
24103;DHT22;12278;53.058;9.028;2023-02-10T09:11:36;5.90;99.90
24103;DHT22;12278;53.058;9.028;2023-02-10T09:15:38;5.90;99.90
24103;DHT22;12278;53.058;9.028;2023-02-10T09:19:39;5.60;99.90
24103;DHT22;12278;53.058;9.028;2023-02-10T09:23:41;5.50;99.90
24103;DHT22;12278;53.058;9.028;2023-02-10T09:27:42;5.60;99.90
24103;DHT22;12278;53.058;9.028;2023-02-10T09:31:43;5.20;99.90
24103;DHT22;12278;53.058;9.028;2023-02-10T09:35:44;5.60;99.90
24103;DHT22;12278;53.058;9.028;2023-02-10T09:39:44;5.90;99.90
24103;DHT22;12278;53.058;9.028;2023-02-10T09:44:25;6.00;99.90
24103;DHT22;12278;53.058;9.028;2023-02-10T09:56:49;5.90;99.90
24103;DHT22;12278;53.058;9.028;2023-02-10T10:00:54;6.30;99.90
24103;DHT22;12278;53.058;9.028;2023-02-10T10:05:12;6.40;99.90
24103;DHT22;12278;53.058;9.028;2023-02-10T10:13:37;6.60;99.90
24103;DHT22;12278;53.058;9.028;2023-02-10T10:17:44;6.90;99.90
24103;DHT22;12278;53.058;9.028;2023-02-10T10:22:16;6.70;99.90
24103;DHT22;12278;53.058;9.028;2023-02-10T10:31:03;7.00;99.90
24103;DHT22;12278;53.058;9.028;2023-02-10T10:35:21;7.50;99.90
24103;DHT22;12278;53.058;9.028;2023-02-10T10:39:36;7.50;99.90
24103;DHT22;12278;53.058;9.028;2023-02-10T10:47:50;6.80;99.90
24103;DHT22;12278;53.058;9.028;2023-02-10T10:51:52;7.30;99.90
24103;DHT22;12278;53.058;9.028;2023-02-10T10:55:54;7.40;99.90
24103;DHT22;12278;53.058;9.028;2023-02-10T11:00:03;8.10;99.90
24103;DHT22;12278;53.058;9.028;2023-02-10T11:08:26;8.20;99.90
24103;DHT22;12278;53.058;9.028;2023-02-10T11:12:33;8.10;99.90
24103;DHT22;12278;53.058;9.028;2023-02-10T11:16:41;9.00;99.90
24103;DHT22;12278;53.058;9.028;2023-02-10T11:21:02;9.00;99.90
24103;DHT22;12278;53.058;9.028;2023-02-10T11:29:26;7.30;99.90
24103;DHT22;12278;53.058;9.028;2023-02-10T11:33:31;7.30;99.90
24103;DHT22;12278;53.058;9.028;2023-02-10T11:37:35;7.30;99.90
24103;DHT22;12278;53.058;9.028;2023-02-10T11:41:43;7.30;99.90
24103;DHT22;12278;53.058;9.028;2023-02-10T11:46:02;7.90;99.90
24103;DHT22;12278;53.058;9.028;2023-02-10T11:54:20;9.00;99.90
24103;DHT22;12278;53.058;9.028;2023-02-10T11:58:37;8.20;99.90
24103;DHT22;12278;53.058;9.028;2023-02-10T12:03:20;7.70;99.90
24103;DHT22;12278;53.058;9.028;2023-02-10T12:20:34;8.50;99.90
24103;DHT22;12278;53.058;9.028;2023-02-10T12:38:02;9.40;99.90
24103;DHT22;12278;53.058;9.028;2023-02-10T12:42:11;8.70;99.90
24103;DHT22;12278;53.058;9.028;2023-02-10T12:59:18;8.00;99.90
24103;DHT22;12278;53.058;9.028;2023-02-10T13:03:30;8.20;99.90
24103;DHT22;12278;53.058;9.028;2023-02-10T13:07:52;8.40;99.90
24103;DHT22;12278;53.058;9.028;2023-02-10T13:12:28;8.40;99.90
24103;DHT22;12278;53.058;9.028;2023-02-10T13:16:32;8.60;99.90
24103;DHT22;12278;53.058;9.028;2023-02-10T13:20:40;8.30;99.90
24103;DHT22;12278;53.058;9.028;2023-02-10T13:24:48;8.20;99.90
24103;DHT22;12278;53.058;9.028;2023-02-10T13:29:20;8.40;99.90
24103;DHT22;12278;53.058;9.028;2023-02-10T13:37:42;8.20;99.90
24103;DHT22;12278;53.058;9.028;2023-02-10T13:42:15;8.30;99.90
24103;DHT22;12278;53.058;9.028;2023-02-10T13:46:27;8.30;99.90
24103;DHT22;12278;53.058;9.028;2023-02-10T13:50:47;8.30;99.90
24103;DHT22;12278;53.058;9.028;2023-02-10T14:07:17;9.70;99.90
24103;DHT22;12278;53.058;9.028;2023-02-10T14:11:43;9.70;99.90
24103;DHT22;12278;53.058;9.028;2023-02-10T14:16:04;9.30;99.90
24103;DHT22;12278;53.058;9.028;2023-02-10T14:20:16;8.80;99.90
24103;DHT22;12278;53.058;9.028;2023-02-10T14:24:22;8.90;99.90
24103;DHT22;12278;53.058;9.028;2023-02-10T14:28:28;9.20;99.90
24103;DHT22;12278;53.058;9.028;2023-02-10T14:32:42;10.10;99.90
24103;DHT22;12278;53.058;9.028;2023-02-10T14:37:02;10.80;99.90
24103;DHT22;12278;53.058;9.028;2023-02-10T14:41:03;9.60;99.90
24103;DHT22;12278;53.058;9.028;2023-02-10T14:45:04;9.40;99.90
24103;DHT22;12278;53.058;9.028;2023-02-10T14:49:10;9.80;99.90
24103;DHT22;12278;53.058;9.028;2023-02-10T14:53:18;10.20;99.90
24103;DHT22;12278;53.058;9.028;2023-02-10T14:57:21;10.00;99.90
24103;DHT22;12278;53.058;9.028;2023-02-10T15:01:30;9.90;99.90
24103;DHT22;12278;53.058;9.028;2023-02-10T15:05:45;9.60;99.90
24103;DHT22;12278;53.058;9.028;2023-02-10T15:09:48;9.00;99.90
24103;DHT22;12278;53.058;9.028;2023-02-10T15:13:49;8.60;99.90
24103;DHT22;12278;53.058;9.028;2023-02-10T15:17:53;8.30;99.90
24103;DHT22;12278;53.058;9.028;2023-02-10T15:21:55;8.10;99.90
24103;DHT22;12278;53.058;9.028;2023-02-10T15:26:19;7.90;99.90
24103;DHT22;12278;53.058;9.028;2023-02-10T15:30:22;7.70;99.90
24103;DHT22;12278;53.058;9.028;2023-02-10T15:34:29;7.60;99.90
24103;DHT22;12278;53.058;9.028;2023-02-10T15:38:31;7.50;99.90
24103;DHT22;12278;53.058;9.028;2023-02-10T15:42:32;7.40;99.90
24103;DHT22;12278;53.058;9.028;2023-02-10T15:46:33;7.40;99.90
24103;DHT22;12278;53.058;9.028;2023-02-10T15:50:37;7.30;99.90
24103;DHT22;12278;53.058;9.028;2023-02-10T15:54:37;7.40;99.90
24103;DHT22;12278;53.058;9.028;2023-02-10T15:58:38;7.30;99.90
24103;DHT22;12278;53.058;9.028;2023-02-10T16:02:39;7.20;99.90
24103;DHT22;12278;53.058;9.028;2023-02-10T16:06:39;7.10;99.90
24103;DHT22;12278;53.058;9.028;2023-02-10T16:10:40;6.90;99.90
24103;DHT22;12278;53.058;9.028;2023-02-10T16:14:41;6.80;99.90
24103;DHT22;12278;53.058;9.028;2023-02-10T16:18:42;6.70;99.90
24103;DHT22;12278;53.058;9.028;2023-02-10T16:22:42;6.50;99.90
24103;DHT22;12278;53.058;9.028;2023-02-10T16:26:44;6.50;99.90
24103;DHT22;12278;53.058;9.028;2023-02-10T16:30:48;6.40;99.90
24103;DHT22;12278;53.058;9.028;2023-02-10T16:34:48;6.30;99.90
24103;DHT22;12278;53.058;9.028;2023-02-10T16:38:49;6.30;99.90
24103;DHT22;12278;53.058;9.028;2023-02-10T16:43:02;6.20;99.90
24103;DHT22;12278;53.058;9.028;2023-02-10T16:47:03;6.10;99.90
24103;DHT22;12278;53.058;9.028;2023-02-10T16:51:04;6.00;99.90
24103;DHT22;12278;53.058;9.028;2023-02-10T16:55:05;5.90;99.90
24103;DHT22;12278;53.058;9.028;2023-02-10T16:59:09;5.80;99.90
24103;DHT22;12278;53.058;9.028;2023-02-10T17:03:11;5.70;99.90
24103;DHT22;12278;53.058;9.028;2023-02-10T17:07:17;5.70;99.90
24103;DHT22;12278;53.058;9.028;2023-02-10T17:11:20;5.60;99.90
24103;DHT22;12278;53.058;9.028;2023-02-10T17:15:22;5.60;99.90
24103;DHT22;12278;53.058;9.028;2023-02-10T17:19:23;5.60;99.90
24103;DHT22;12278;53.058;9.028;2023-02-10T17:23:27;5.50;99.90
24103;DHT22;12278;53.058;9.028;2023-02-10T17:27:35;5.50;99.90
24103;DHT22;12278;53.058;9.028;2023-02-10T17:31:38;5.40;99.90
24103;DHT22;12278;53.058;9.028;2023-02-10T17:35:38;5.40;99.90
24103;DHT22;12278;53.058;9.028;2023-02-10T17:39:39;5.40;99.90
24103;DHT22;12278;53.058;9.028;2023-02-10T17:43:42;5.40;99.90
24103;DHT22;12278;53.058;9.028;2023-02-10T17:47:44;5.50;99.90
24103;DHT22;12278;53.058;9.028;2023-02-10T17:51:45;5.50;99.90
24103;DHT22;12278;53.058;9.028;2023-02-10T17:55:45;5.50;99.90
24103;DHT22;12278;53.058;9.028;2023-02-10T17:59:46;5.50;99.90
24103;DHT22;12278;53.058;9.028;2023-02-10T18:03:47;5.50;99.90
24103;DHT22;12278;53.058;9.028;2023-02-10T18:07:47;5.50;99.90
24103;DHT22;12278;53.058;9.028;2023-02-10T18:11:48;5.60;99.90
24103;DHT22;12278;53.058;9.028;2023-02-10T18:15:58;5.60;99.90
24103;DHT22;12278;53.058;9.028;2023-02-10T18:19:59;5.50;99.90
24103;DHT22;12278;53.058;9.028;2023-02-10T18:24:15;5.50;99.90
24103;DHT22;12278;53.058;9.028;2023-02-10T18:28:17;5.50;99.90
24103;DHT22;12278;53.058;9.028;2023-02-10T18:32:17;5.50;99.90
24103;DHT22;12278;53.058;9.028;2023-02-10T18:36:22;5.50;99.90
24103;DHT22;12278;53.058;9.028;2023-02-10T18:40:22;5.50;99.90
24103;DHT22;12278;53.058;9.028;2023-02-10T18:44:23;5.40;99.90
24103;DHT22;12278;53.058;9.028;2023-02-10T18:48:24;5.40;99.90
24103;DHT22;12278;53.058;9.028;2023-02-10T18:52:24;5.40;99.90
24103;DHT22;12278;53.058;9.028;2023-02-10T18:56:25;5.40;99.90
24103;DHT22;12278;53.058;9.028;2023-02-10T19:00:26;5.40;99.90
24103;DHT22;12278;53.058;9.028;2023-02-10T19:04:26;5.40;99.90
24103;DHT22;12278;53.058;9.028;2023-02-10T19:13:02;5.40;99.90
24103;DHT22;12278;53.058;9.028;2023-02-10T19:17:03;5.40;99.90
24103;DHT22;12278;53.058;9.028;2023-02-10T19:21:04;5.40;99.90
24103;DHT22;12278;53.058;9.028;2023-02-10T19:25:44;5.40;99.90
24103;DHT22;12278;53.058;9.028;2023-02-10T19:29:55;5.50;99.90
24103;DHT22;12278;53.058;9.028;2023-02-10T19:34:06;5.50;99.90
24103;DHT22;12278;53.058;9.028;2023-02-10T19:38:08;5.50;99.90
24103;DHT22;12278;53.058;9.028;2023-02-10T19:42:08;5.60;99.90
24103;DHT22;12278;53.058;9.028;2023-02-10T19:46:09;5.50;99.90
24103;DHT22;12278;53.058;9.028;2023-02-10T19:50:10;5.60;99.90
24103;DHT22;12278;53.058;9.028;2023-02-10T19:54:11;5.70;99.90
24103;DHT22;12278;53.058;9.028;2023-02-10T19:58:12;5.70;99.90
24103;DHT22;12278;53.058;9.028;2023-02-10T20:02:12;5.70;99.90
24103;DHT22;12278;53.058;9.028;2023-02-10T20:06:22;5.70;99.90
24103;DHT22;12278;53.058;9.028;2023-02-10T20:10:23;5.60;99.90
24103;DHT22;12278;53.058;9.028;2023-02-10T20:14:51;5.60;99.90
24103;DHT22;12278;53.058;9.028;2023-02-10T20:18:51;5.50;99.90
24103;DHT22;12278;53.058;9.028;2023-02-10T20:22:52;5.50;99.90
24103;DHT22;12278;53.058;9.028;2023-02-10T20:26:53;5.60;99.90
24103;DHT22;12278;53.058;9.028;2023-02-10T20:30:54;5.60;99.90
24103;DHT22;12278;53.058;9.028;2023-02-10T20:35:02;5.70;99.90
24103;DHT22;12278;53.058;9.028;2023-02-10T20:39:06;5.70;99.90
24103;DHT22;12278;53.058;9.028;2023-02-10T20:43:07;5.70;99.90
24103;DHT22;12278;53.058;9.028;2023-02-10T20:47:08;5.70;99.90
24103;DHT22;12278;53.058;9.028;2023-02-10T20:51:09;5.70;99.90
24103;DHT22;12278;53.058;9.028;2023-02-10T20:55:11;5.80;99.90
24103;DHT22;12278;53.058;9.028;2023-02-10T20:59:21;5.80;99.90
24103;DHT22;12278;53.058;9.028;2023-02-10T21:03:22;5.90;99.90
24103;DHT22;12278;53.058;9.028;2023-02-10T21:07:22;5.90;99.90
24103;DHT22;12278;53.058;9.028;2023-02-10T21:11:26;5.90;99.90
24103;DHT22;12278;53.058;9.028;2023-02-10T21:15:29;6.00;99.90
24103;DHT22;12278;53.058;9.028;2023-02-10T21:19:38;6.00;99.90
24103;DHT22;12278;53.058;9.028;2023-02-10T21:23:42;6.10;99.90
24103;DHT22;12278;53.058;9.028;2023-02-10T21:32:23;6.10;99.90
24103;DHT22;12278;53.058;9.028;2023-02-10T21:36:27;6.10;99.90
24103;DHT22;12278;53.058;9.028;2023-02-10T21:40:28;6.10;99.90
24103;DHT22;12278;53.058;9.028;2023-02-10T21:44:30;6.20;99.90
24103;DHT22;12278;53.058;9.028;2023-02-10T21:48:33;6.20;99.90
24103;DHT22;12278;53.058;9.028;2023-02-10T21:52:34;6.20;99.90
24103;DHT22;12278;53.058;9.028;2023-02-10T21:56:34;6.20;99.90
24103;DHT22;12278;53.058;9.028;2023-02-10T22:00:42;6.30;99.90
24103;DHT22;12278;53.058;9.028;2023-02-10T22:04:42;6.30;99.90
24103;DHT22;12278;53.058;9.028;2023-02-10T22:08:43;6.30;99.90
24103;DHT22;12278;53.058;9.028;2023-02-10T22:12:52;6.30;99.90
24103;DHT22;12278;53.058;9.028;2023-02-10T22:17:00;6.30;99.90
24103;DHT22;12278;53.058;9.028;2023-02-10T22:21:13;6.30;99.90
24103;DHT22;12278;53.058;9.028;2023-02-10T22:25:14;6.30;99.90
24103;DHT22;12278;53.058;9.028;2023-02-10T22:29:14;6.30;99.90
24103;DHT22;12278;53.058;9.028;2023-02-10T22:33:15;6.30;99.90
24103;DHT22;12278;53.058;9.028;2023-02-10T22:37:16;6.30;99.90
24103;DHT22;12278;53.058;9.028;2023-02-10T22:41:23;6.30;99.90
24103;DHT22;12278;53.058;9.028;2023-02-10T22:45:23;6.30;99.90
24103;DHT22;12278;53.058;9.028;2023-02-10T22:49:24;6.30;99.90
24103;DHT22;12278;53.058;9.028;2023-02-10T22:53:25;6.30;99.90
24103;DHT22;12278;53.058;9.028;2023-02-10T22:57:26;6.30;99.90
24103;DHT22;12278;53.058;9.028;2023-02-10T23:02:00;6.30;99.90
24103;DHT22;12278;53.058;9.028;2023-02-10T23:06:01;6.30;99.90
24103;DHT22;12278;53.058;9.028;2023-02-10T23:10:02;6.40;99.90
24103;DHT22;12278;53.058;9.028;2023-02-10T23:14:03;6.30;99.90
24103;DHT22;12278;53.058;9.028;2023-02-10T23:18:03;6.30;99.90
24103;DHT22;12278;53.058;9.028;2023-02-10T23:22:05;6.30;99.90
24103;DHT22;12278;53.058;9.028;2023-02-10T23:26:33;6.30;99.90
24103;DHT22;12278;53.058;9.028;2023-02-10T23:30:34;6.30;99.90
24103;DHT22;12278;53.058;9.028;2023-02-10T23:34:34;6.30;99.90
24103;DHT22;12278;53.058;9.028;2023-02-10T23:38:35;6.20;99.90
24103;DHT22;12278;53.058;9.028;2023-02-10T23:42:36;6.30;99.90
24103;DHT22;12278;53.058;9.028;2023-02-10T23:46:37;6.30;99.90
24103;DHT22;12278;53.058;9.028;2023-02-10T23:50:40;6.30;99.90
24103;DHT22;12278;53.058;9.028;2023-02-10T23:54:40;6.30;99.90
24103;DHT22;12278;53.058;9.028;2023-02-10T23:58:41;6.30;99.90
